Aérodrome :
LOGIN :

S'inscrire | Disclaimer

   EN    FR    IT 

 










Légende :    VFR   VFR Marginal   IFR   IFR Intensif   IFR Très Intensif
Visi : 
Plafond : 
>= 8 km
>= 3000ft
5 à 8 km
1000 à 3000 ft
1500m à 5 km
500 à 1000 ft
800 à 1500m
200 à 500 ft
< 800m
< 200 ft
Symboles :   Orages  Brouillard  Fortes neiges  Fortes précipitations  Vent > 20 kt
SIGMETs :   Divers  Orages  Givrage  Turbulence  Onde Orograph.  Cendres Volcan.






- Altitude de l'aérodrome : 42 ft
- Code IATA : LMO


EGQS - Lossiemouth

DERNIER METAR :
  • 231650Z 02011KT 2500 BR FEW001 OVC002 12/12 Q1013 RMK AMB

METARs EXPIRÉS :
  • 231620Z 01010KT 2000 BR SCT002 BKN003 12/12 Q1012 RMK AMB
  • 231550Z 02009KT 1500 BR FEW001 BKN002 12/12 Q1012 TEMPO SCT001 RMK AMB TEMPO RED
  • 231534Z 02010KT 1200 DZ BKN001 12/12 Q1012 TEMPO BKN002 RMK RED TEMPO AMB
  • 231520Z 02009KT 1800 DZ BKN001 OVC002 12/12 Q1012 TEMPO 1200 +DZ RMK RED TEMPO RED
  • 231514Z 02009KT 1300 DZ BKN001 OVC002 12/12 Q1012 TEMPO FEW001 BKN002 RMK RED TEMPO AMB
  • 231450Z 02010KT 1200 DZ FEW001 OVC002 12/12 Q1012 TEMPO 0500 FG BKN001 RMK AMB TEMPO RED
  • 231431Z 02009KT 3000 1600NW -DZ BR FEW001 OVC002 12/12 Q1012 TEMPO SCT001 RMK AMB TEMPO RED
  • 231420Z 02010KT 1500 -DZ BR BKN001 OVC002 12/12 Q1012 TEMPO FEW001 BKN002 RMK RED TEMPO AMB
  • 231350Z 01010KT 1200 -DZ BR SCT001 OVC002 12/11 Q1012 TEMPO FEW001 BKN002 RMK RED TEMPO AMB
  • 231340Z 01011KT 1500 -DZ BR OVC002 12/11 Q1012 TEMPO 2000 -DZ BR SCT003 RMK AMB TEMPO YLO2
  • 231320Z 36011KT 3500 2000NW -RADZ OVC002 12/12 Q1012 TEMPO BKN003 RMK AMB TEMPO YLO2
  • 231250Z 01013KT 4000 -RADZ SCT003 OVC005 12/11 Q1012 TEMPO 2000 RADZ RMK YLO2 TEMPO YLO2
  • 231220Z 01014KT 4000 -RADZ SCT004 OVC005 12/11 Q1012 RERA REDZ TEMPO 2000 RADZ RMK YLO2 TEMPO YLO2

TAF TAF EGQS
Valide du 23 à 15h jusqu'au 24 à 09h UTC


231413Z 2315/2409 36015KT 5000 -RADZ BR OVC006
PROB40
TEMPO 2315/2409 0500 FG OVC000
BECMG 2320/2323 31008KT



MET'MAP, la Météo Aéronautique d'un coup d'oeil ! - Copyright ORBIFLY Décembre 2007 - Disclaimer

ORBIFLY MET'MAP TEAM :

Programmation & Développement : Alexandra Zaïnal
Sur une idée originale de : Baudouin d'Aumeries
Soutien technique & logistique : Manuel Goepfert
Assistance : Marc-Olivier Méhu




SOURCES & CREDITS :

   NOAA